Time;durP1;ratioP1;P1;durP2;ratioP2;P2;SDS_P1;SDS_P2;PMS_P1;PMS_P2;Temp;Humidity;BMP_temperature;BMP_pressure;BME280_temperature;BME280_humidity;BME280_pressure;Samples;Min_cycle;Max_cycle;Signal;HPM_P1;HPM_P2
2023/05/06 00:03:00;;;;;;;5.20;3.50;;;;;;;10.68;65.21;96668.32;109805;1275;22169;-85
2023/05/06 00:06:08;;;;;;;;;;;;;;;;;;;;;
2023/05/06 00:09:19;;;;;;;;;;;;;;;;;;;;;
2023/05/06 00:12:46;;;;;;;4.70;3.50;;;;;;;10.51;65.71;96675.79;109617;1283;138236;-85
2023/05/06 00:16:13;;;;;;;5.70;3.50;;;;;;;10.49;66.41;96676.11;109847;1274;22179;-85
2023/05/06 00:19:32;;;;;;;3.40;3.00;;;;;;;10.43;66.66;96676.27;109903;1277;22161;-85
2023/05/06 00:22:52;;;;;;;6.90;3.40;;;;;;;10.38;67.39;96667.77;109678;1278;137635;-83
2023/05/06 00:26:11;;;;;;;;;;;;;;;;;;;;;
2023/05/06 00:29:46;;;;;;;5.00;3.20;;;;;;;10.28;67.14;96661.33;109666;1283;137792;-83
2023/05/06 00:33:09;;;;;;;;;;;;;;;;;;;;;
2023/05/06 00:36:30;;;;;;;5.10;4.00;;;;;;;10.26;67.53;96652.23;108950;1276;137488;-82
2023/05/06 00:39:42;;;;;;;;;;;;;;;;;;;;;
2023/05/06 00:43:17;;;;;;;5.80;3.60;;;;;;;10.34;67.82;96633.25;106749;1276;22607;-82
2023/05/06 00:46:36;;;;;;;4.80;3.10;;;;;;;10.43;68.32;96622.75;106599;1283;22782;-82
2023/05/06 00:49:41;;;;;;;4.00;3.60;;;;;;;10.45;67.72;96612.98;106966;1276;24260;-82
2023/05/06 00:53:00;;;;;;;4.70;3.40;;;;;;;10.44;67.56;96612.77;106681;1283;138588;-83
2023/05/06 00:56:19;;;;;;;6.60;4.10;;;;;;;10.41;67.58;96613.79;106851;1276;22611;-85
2023/05/06 00:59:38;;;;;;;;;;;;;;;;;;;;;
2023/05/06 01:02:49;;;;;;;;;;;;;;;10.34;66.95;96618.03;106685;1283;24268;-85
2023/05/06 01:06:31;;;;;;;6.20;4.50;;;;;;;10.30;67.22;96615.85;106733;1276;124368;-85
2023/05/06 01:09:59;;;;;;;6.90;5.10;;;;;;;10.21;67.12;96614.66;106635;1283;22542;-85
2023/05/06 01:13:48;;;;;;;7.10;4.60;;;;;;;10.13;67.51;96616.41;109741;1283;22176;-85
2023/05/06 01:17:14;;;;;;;5.70;4.00;;;;;;;10.02;67.77;96618.71;109352;1284;139042;-83
2023/05/06 01:20:42;;;;;;;5.70;4.60;;;;;;;9.91;68.02;96622.51;106888;1283;22614;-82
2023/05/06 01:24:29;;;;;;;6.30;4.30;;;;;;;9.81;67.78;96617.42;106142;1283;137539;-82
2023/05/06 01:27:42;;;;;;;5.00;4.00;;;;;;;9.74;68.59;96611.40;109507;1277;22940;-83
2023/05/06 01:30:59;;;;;;;4.70;4.20;;;;;;;9.73;69.14;96610.50;106967;1283;138054;-83
2023/05/06 01:34:38;;;;;;;6.40;4.40;;;;;;;9.67;69.27;96615.34;106390;1286;25362;-83
2023/05/06 01:38:25;;;;;;;5.70;4.40;;;;;;;9.63;69.51;96615.80;106292;1283;23958;-83
2023/05/06 01:41:52;;;;;;;6.60;4.00;;;;;;;9.63;69.66;96621.11;108752;1289;138536;-83
2023/05/06 01:45:18;;;;;;;6.40;4.20;;;;;;;9.63;70.14;96621.82;109413;1283;22223;-83
2023/05/06 01:48:44;;;;;;;8.20;4.20;;;;;;;9.61;70.68;96618.63;109690;1283;137730;-83
2023/05/06 01:52:08;;;;;;;;;;;;;;;;;;;;;
2023/05/06 01:55:36;;;;;;;6.10;4.20;;;;;;;9.57;71.76;96617.98;107590;1279;25401;-86
2023/05/06 01:59:03;;;;;;;5.60;4.00;;;;;;;9.61;71.36;96615.88;106825;1276;25390;-85
2023/05/06 02:02:30;;;;;;;5.80;4.40;;;;;;;9.58;71.36;96612.00;106897;1277;22560;-85
2023/05/06 02:05:56;;;;;;;6.20;4.70;;;;;;;9.53;71.42;96609.96;109704;1276;137992;-83
2023/05/06 02:09:23;;;;;;;5.00;4.40;;;;;;;9.49;71.66;96608.98;109858;1276;22358;-83
2023/05/06 02:12:49;;;;;;;7.00;4.70;;;;;;;9.49;71.99;96605.94;109631;1283;138155;-83
2023/05/06 02:15:51;;;;;;;8.50;4.50;;;;;;;9.50;71.93;96608.71;106773;1276;22545;-83
2023/05/06 02:19:18;;;;;;;6.40;3.30;;;;;;;9.52;72.19;96607.14;106715;1277;138166;-83
2023/05/06 02:22:45;;;;;;;7.50;4.70;;;;;;;9.50;72.06;96603.49;106738;1277;22566;-83
2023/05/06 02:25:56;;;;;;;;;;;;;;;;;;;;;
2023/05/06 02:29:23;;;;;;;5.80;4.40;;;;;;;9.43;72.72;96604.66;109626;1283;137693;-83
2023/05/06 02:32:35;;;;;;;5.20;3.90;;;;;;;9.41;73.17;96601.93;107862;1276;22568;-83
2023/05/06 02:36:01;;;;;;;6.90;4.70;;;;;;;9.40;73.30;96602.75;109722;1277;137712;-83
2023/05/06 02:39:28;;;;;;;5.70;4.60;;;;;;;9.32;73.69;96604.67;109736;1277;22359;-83
2023/05/06 02:42:55;;;;;;;5.80;4.70;;;;;;;9.25;73.82;96600.20;108733;1277;137840;-83
2023/05/06 02:46:22;;;;;;;6.00;4.70;;;;;;;9.16;73.86;96601.98;106796;1277;22580;-83
2023/05/06 02:49:49;;;;;;;4.50;4.00;;;;;;;9.05;74.24;96598.64;106819;1277;22562;-83
2023/05/06 02:53:15;;;;;;;6.30;4.40;;;;;;;9.00;74.46;96596.74;106753;1260;22670;-83
2023/05/06 02:56:34;;;;;;;;;;;;;;;;;;;;;
2023/05/06 03:00:00;;;;;;;8.60;5.50;;;;;;;8.98;74.90;96592.14;106751;1276;138309;-82
2023/05/06 03:03:27;;;;;;;6.40;5.40;;;;;;;8.99;74.76;96590.70;106872;1280;22552;-83
2023/05/06 03:06:41;;;;;;;;;;;;;;;;;;;;;
2023/05/06 03:10:01;;;;;;;7.60;6.00;;;;;;;9.00;75.20;96584.10;106774;1277;23365;-83
2023/05/06 03:13:18;;;;;;;;;;;;;;;;;;;;;
2023/05/06 03:16:47;;;;;;;8.60;6.10;;;;;;;8.95;75.45;96582.66;108262;1277;22769;-83
2023/05/06 03:20:05;;;;;;;;;;;;;;;;;;;;;
2023/05/06 03:23:26;;;;;;;7.70;5.40;;;;;;;8.87;75.81;96571.41;109660;1284;138407;-83
2023/05/06 03:26:45;;;;;;;10.60;6.30;;;;;;;8.90;76.49;96568.71;109853;1277;22260;-83
2023/05/06 03:30:05;;;;;;;6.80;5.10;;;;;;;8.99;76.76;96569.08;106677;1276;138462;-84
2023/05/06 03:33:32;;;;;;;7.20;5.40;;;;;;;9.10;76.79;96567.77;109600;1283;22543;-83
2023/05/06 03:36:59;;;;;;;4.90;4.40;;;;;;;9.17;77.24;96571.25;104768;1276;138337;-83
2023/05/06 03:40:05;;;;;;;;;;;;;;;;;;;;;
2023/05/06 03:43:18;;;;;;;6.40;4.80;;;;;;;9.24;77.36;96572.92;109736;1281;139335;-83
2023/05/06 03:46:21;;;;;;;;;;;;;;;;;;;;;
2023/05/06 03:49:56;;;;;;;5.50;4.40;;;;;;;9.36;78.25;96574.89;109868;1279;22175;-83
2023/05/06 03:53:15;;;;;;;5.20;4.60;;;;;;;9.42;78.25;96587.12;108455;1277;22568;-83
2023/05/06 03:56:38;;;;;;;5.90;4.10;;;;;;;9.51;78.09;96584.42;106785;1276;22580;-84
2023/05/06 03:59:37;;;;;;;;;;;;;;;;;;;;;
2023/05/06 04:02:48;;;;;;;;;;;;;;;;;;;;;
2023/05/06 04:06:16;;;;;;;6.80;4.40;;;;;;;9.69;78.54;96586.98;109685;1280;138036;-83
2023/05/06 04:09:43;;;;;;;4.90;4.40;;;;;;;9.74;79.25;96587.41;109700;1277;22198;-83
2023/05/06 04:13:01;;;;;;;5.70;4.90;;;;;;;9.87;79.05;96584.38;106938;1276;137619;-83
2023/05/06 04:16:20;;;;;;;7.50;5.20;;;;;;;9.94;79.08;96595.38;109719;1280;22689;-84
2023/05/06 04:19:46;;;;;;;5.90;4.70;;;;;;;9.97;79.51;96599.67;107009;1279;137654;-83
2023/05/06 04:23:11;;;;;;;;;;;;;;;;;;;;;
2023/05/06 04:26:39;;;;;;;9.80;6.20;;;;;;;9.99;77.93;96595.83;107182;1277;25505;-83
2023/05/06 04:29:57;;;;;;;;;;;;;;;;;;;;;
2023/05/06 04:33:09;;;;;;;;;;;;;;;;;;;;;
2023/05/06 04:36:37;;;;;;;6.20;4.50;;;;;;;10.03;79.90;96585.46;109664;1283;137699;-83
2023/05/06 04:40:04;;;;;;;7.30;4.50;;;;;;;10.08;80.78;96582.75;106759;1281;22530;-83
2023/05/06 04:43:30;;;;;;;7.40;4.50;;;;;;;10.13;80.81;96579.34;106527;1281;137081;-83
2023/05/06 04:46:57;;;;;;;8.50;4.50;;;;;;;10.26;80.79;96576.14;108787;1283;22530;-83
2023/05/06 04:50:11;;;;;;;;;;;;;;;;;;;;;
2023/05/06 04:53:38;;;;;;;5.10;4.60;;;;;;;10.49;82.11;96563.94;107745;1281;25444;-83
2023/05/06 04:56:49;;;;;;;5.40;4.20;;;;;;;10.65;83.98;96555.09;106857;1277;22537;-82
2023/05/06 05:00:16;;;;;;;5.90;4.90;;;;;;;10.78;84.45;96551.48;106680;1279;137676;-83
2023/05/06 05:03:35;;;;;;;6.80;6.10;;;;;;;10.90;84.25;96563.04;106844;1277;22555;-83
2023/05/06 05:06:41;;;;;;;13.20;8.60;;;;;;;10.90;81.76;96572.05;109225;1283;138745;-83
2023/05/06 05:10:01;;;;;;;12.40;8.40;;;;;;;10.93;80.69;96573.57;106910;1277;23346;-83
2023/05/06 05:13:19;;;;;;;;;;;;;;;;;;;;;
2023/05/06 05:16:46;;;;;;;10.50;8.70;;;;;;;11.04;79.49;96566.02;106723;1280;22545;-83
2023/05/06 05:20:06;;;;;;;12.50;10.40;;;;;;;11.09;79.95;96558.36;106877;1277;138319;-83
2023/05/06 05:23:31;;;;;;;;;;;;;;;;;;;;;
2023/05/06 05:26:58;;;;;;;11.50;9.80;;;;;;;11.09;78.95;96552.31;107562;1277;22548;-83
2023/05/06 05:30:25;;;;;;;11.60;8.90;;;;;;;11.08;78.51;96552.93;109170;1276;139314;-83
2023/05/06 05:33:52;;;;;;;10.30;8.60;;;;;;;11.16;78.94;96551.79;106702;1277;23507;-84
2023/05/06 05:37:18;;;;;;;11.60;10.00;;;;;;;11.25;79.50;96556.99;106661;1278;138755;-84
2023/05/06 05:40:45;;;;;;;12.50;9.10;;;;;;;11.33;78.99;96556.88;106734;1277;22537;-84
2023/05/06 05:44:11;;;;;;;;;;;;;;;;;;;;;
2023/05/06 05:47:32;;;;;;;14.10;10.50;;;;;;;11.38;78.57;96555.80;108319;1276;25380;-84
2023/05/06 05:50:56;;;;;;;14.30;10.60;;;;;;;11.41;78.66;96554.26;109843;1279;22188;-85
2023/05/06 05:54:23;;;;;;;13.90;10.10;;;;;;;11.42;77.99;96550.64;109732;1278;138811;-85
2023/05/06 05:57:41;;;;;;;;;;;;;;;;;;;;;
2023/05/06 06:01:02;;;;;;;14.20;10.30;;;;;;;11.51;78.44;96551.32;109594;1277;138656;-85
2023/05/06 06:04:18;;;;;;;;;;;;;;;;;;;;;
2023/05/06 06:07:44;;;;;;;;;;;;;;;;;;;;;
2023/05/06 06:11:10;;;;;;;;;;;;;;;;;;;;;
2023/05/06 06:14:30;;;;;;;12.40;9.40;;;;;;;11.83;78.08;96537.03;109703;1283;22214;-84
2023/05/06 06:17:57;;;;;;;11.80;10.00;;;;;;;11.89;79.13;96531.63;106933;1277;22541;-84
2023/05/06 06:21:17;;;;;;;15.10;9.90;;;;;;;11.93;78.68;96528.73;106771;1276;25434;-84
2023/05/06 06:24:44;;;;;;;16.30;10.50;;;;;;;12.00;79.18;96518.89;107857;1279;139075;-84
2023/05/06 06:28:11;;;;;;;15.60;10.30;;;;;;;12.12;80.27;96517.91;106878;1277;23961;-84
2023/05/06 06:31:37;;;;;;;12.10;10.60;;;;;;;12.26;81.73;96521.75;106670;1280;138518;-84
2023/05/06 06:35:04;;;;;;;13.50;11.00;;;;;;;12.39;80.29;96520.52;106639;1277;22660;-84
2023/05/06 06:38:31;;;;;;;15.90;11.40;;;;;;;12.49;81.55;96522.45;107574;1277;137723;-84
2023/05/06 06:41:57;;;;;;;14.60;11.00;;;;;;;12.59;81.18;96519.31;106669;1281;22552;-85
2023/05/06 06:45:15;;;;;;;14.50;10.60;;;;;;;12.71;80.48;96511.82;109760;1282;22351;-84
2023/05/06 06:48:42;;;;;;;14.10;10.70;;;;;;;12.78;80.37;96506.23;109678;1284;138881;-85
2023/05/06 06:52:09;;;;;;;11.50;8.00;;;;;;;12.86;81.07;96499.45;109725;1283;22325;-85
2023/05/06 06:55:35;;;;;;;11.90;10.20;;;;;;;13.04;81.44;96499.50;108315;1277;139012;-85
2023/05/06 06:59:01;;;;;;;12.70;9.70;;;;;;;13.17;81.49;96497.08;106810;1278;22556;-84
2023/05/06 07:02:28;;;;;;;13.20;10.40;;;;;;;13.27;80.84;96497.58;106684;1281;138493;-84
2023/05/06 07:05:55;;;;;;;15.50;11.60;;;;;;;13.34;81.32;96498.27;106824;1277;22682;-84
2023/05/06 07:09:20;;;;;;;;;;;;;;;;;;;;;
2023/05/06 07:12:48;;;;;;;17.20;12.70;;;;;;;13.47;80.53;96490.00;106692;1278;138077;-84
2023/05/06 07:16:15;;;;;;;19.10;12.30;;;;;;;13.50;79.83;96485.61;106606;1277;22557;-84
2023/05/06 07:19:42;;;;;;;14.60;11.30;;;;;;;13.55;80.11;96482.44;106562;1278;138716;-84
2023/05/06 07:23:09;;;;;;;11.80;10.50;;;;;;;13.65;79.97;96475.30;106685;1278;22534;-84
2023/05/06 07:26:34;;;;;;;13.80;10.60;;;;;;;13.75;80.09;96470.63;106578;1283;138707;-84
2023/05/06 07:30:01;;;;;;;14.70;10.60;;;;;;;13.86;80.47;96474.63;106653;1284;22621;-84
2023/05/06 07:36:38;;;;;;;;;;;;;;;;;;;;;
2023/05/06 07:40:06;;;;;;;14.30;10.00;;;;;;;14.18;80.42;96468.88;109876;1281;22506;-85
2023/05/06 07:43:32;;;;;;;12.60;10.00;;;;;;;14.31;80.05;96461.31;109662;1281;140207;-85
2023/05/06 07:46:57;;;;;;;11.40;8.70;;;;;;;14.48;80.40;96465.13;109761;1281;22155;-85
2023/05/06 07:50:24;;;;;;;12.90;9.50;;;;;;;14.65;79.85;96467.67;109693;1281;138404;-85
2023/05/06 07:53:51;;;;;;;12.20;10.10;;;;;;;14.82;79.86;96461.88;109840;1284;22169;-85
2023/05/06 07:57:18;;;;;;;11.80;8.90;;;;;;;14.96;78.72;96462.64;109580;1281;22530;-84
2023/05/06 08:00:44;;;;;;;9.60;7.80;;;;;;;15.07;78.36;96464.08;106654;1277;138263;-84
2023/05/06 08:04:03;;;;;;;11.60;8.80;;;;;;;15.18;76.49;96458.13;106665;1280;24069;-84
2023/05/06 08:07:23;;;;;;;9.70;8.30;;;;;;;15.31;76.56;96457.70;106817;1281;138091;-84
2023/05/06 08:10:49;;;;;;;12.50;8.80;;;;;;;15.41;75.60;96455.34;106798;1276;22548;-84
2023/05/06 08:14:16;;;;;;;11.70;8.60;;;;;;;15.48;75.75;96456.81;106548;1278;138078;-84
2023/05/06 08:17:43;;;;;;;10.00;7.50;;;;;;;15.56;75.40;96453.68;106782;1281;24244;-85
2023/05/06 08:21:09;;;;;;;11.30;9.00;;;;;;;15.76;74.13;96449.69;106729;1276;22517;-84
2023/05/06 08:24:37;;;;;;;25.10;17.00;;;;;;;16.02;73.78;96439.64;106757;1281;143305;-84
2023/05/06 08:28:03;;;;;;;14.80;10.60;;;;;;;16.35;74.63;96445.13;106929;1281;22544;-84
2023/05/06 08:31:30;;;;;;;13.20;9.80;;;;;;;16.62;72.75;96438.94;106707;1277;138372;-84
2023/05/06 08:34:58;;;;;;;10.60;8.20;;;;;;;16.80;70.16;96443.38;106945;1281;23489;-84
2023/05/06 08:38:24;;;;;;;8.80;7.40;;;;;;;16.87;71.03;96440.73;106753;1277;137704;-84
2023/05/06 08:41:50;;;;;;;8.70;7.00;;;;;;;16.82;70.23;96440.65;106644;1276;26537;-84
2023/05/06 08:45:17;;;;;;;10.10;8.20;;;;;;;16.70;70.47;96442.98;106735;1279;22555;-84
2023/05/06 08:48:43;;;;;;;12.20;8.90;;;;;;;16.60;71.66;96440.66;108931;1279;138719;-84
2023/05/06 08:52:10;;;;;;;11.50;9.50;;;;;;;16.34;70.71;96445.30;106799;1278;22556;-84
2023/05/06 08:55:37;;;;;;;16.50;11.40;;;;;;;16.09;70.34;96450.73;106802;1278;137675;-84
2023/05/06 08:59:07;;;;;;;13.60;10.50;;;;;;;15.89;70.50;96444.36;106778;1277;22567;-84
2023/05/06 09:02:30;;;;;;;15.40;9.90;;;;;;;15.79;71.69;96444.95;106725;1281;138169;-84
2023/05/06 09:05:48;;;;;;;14.00;9.50;;;;;;;15.71;72.29;96450.12;109702;1278;22423;-84
2023/05/06 09:09:16;;;;;;;13.50;10.50;;;;;;;15.65;71.44;96450.24;109689;1279;22354;-84
2023/05/06 09:12:43;;;;;;;14.70;9.90;;;;;;;15.56;71.60;96454.45;107832;1278;138326;-85
2023/05/06 09:16:09;;;;;;;15.30;10.90;;;;;;;15.49;71.66;96454.45;106691;1281;22588;-84
2023/05/06 09:19:36;;;;;;;12.00;10.10;;;;;;;15.41;72.40;96455.98;106587;1276;138327;-84
2023/05/06 09:23:03;;;;;;;13.70;9.80;;;;;;;15.33;73.89;96444.33;106744;1277;23407;-84
2023/05/06 09:26:14;;;;;;;16.10;12.40;;;;;;;15.16;75.01;96435.18;108840;1279;137648;-84
2023/05/06 09:29:41;;;;;;;15.40;11.70;;;;;;;15.05;76.21;96434.17;109817;1275;22208;-84
2023/05/06 09:33:08;;;;;;;15.40;11.90;;;;;;;15.01;76.53;96438.35;108744;1276;25331;-84
2023/05/06 09:36:30;;;;;;;12.80;10.90;;;;;;;15.05;77.73;96437.61;106766;1272;22557;-84
2023/05/06 09:39:57;;;;;;;14.10;11.20;;;;;;;14.99;77.32;96446.77;106824;1281;22595;-84
2023/05/06 09:43:23;;;;;;;14.90;10.50;;;;;;;14.92;77.45;96465.27;106659;1283;138755;-84
2023/05/06 09:46:50;;;;;;;12.20;10.50;;;;;;;14.89;78.16;96473.61;109759;1277;22732;-84
2023/05/06 09:50:17;;;;;;;13.80;11.40;;;;;;;14.72;78.38;96474.42;109577;1283;138824;-84
2023/05/06 09:53:43;;;;;;;15.40;12.30;;;;;;;14.65;80.46;96475.58;106795;1282;25369;-83
2023/05/06 09:57:08;;;;;;;13.60;11.90;;;;;;;14.59;81.12;96465.08;106826;1276;138555;-84
2023/05/06 10:00:35;;;;;;;15.30;11.90;;;;;;;14.50;83.39;96468.20;106854;1276;22600;-84
2023/05/06 10:04:03;;;;;;;11.30;7.70;;;;;;;14.36;83.23;96467.45;106771;1278;24377;-84
2023/05/06 10:07:29;;;;;;;11.60;10.10;;;;;;;14.37;84.23;96466.05;109639;1278;139784;-84
2023/05/06 10:10:56;;;;;;;11.70;10.50;;;;;;;14.45;85.23;96469.11;108515;1278;22547;-84
2023/05/06 10:14:16;;;;;;;23.60;17.30;;;;;;;14.50;85.47;96475.16;106570;1276;138605;-84
2023/05/06 10:17:47;;;;;;;21.50;15.10;;;;;;;14.49;85.40;96489.04;106871;1276;25319;-84
2023/05/06 10:21:12;;;;;;;23.20;17.60;;;;;;;14.46;85.20;96499.60;109429;1279;138244;-84
2023/05/06 10:24:45;;;;;;;23.10;18.60;;;;;;;14.35;83.94;96490.83;109709;1283;22337;-83
2023/05/06 10:28:11;;;;;;;;;;;;;;;;;;;;;
2023/05/06 10:31:29;;;;;;;20.30;16.70;;;;;;;14.22;85.52;96475.47;109758;1276;139901;-84
2023/05/06 10:34:48;;;;;;;;;;;;;;;;;;;;;
2023/05/06 10:38:10;;;;;;;19.60;17.50;;;;;;;14.09;86.06;96464.73;109524;1283;139037;-84
2023/05/06 10:41:37;;;;;;;19.40;14.40;;;;;;;14.06;86.63;96449.34;106892;1281;25380;-85
2023/05/06 10:45:04;;;;;;;10.30;8.70;;;;;;;13.96;86.41;96442.02;106665;1280;140697;-84
2023/05/06 10:48:36;;;;;;;8.10;6.90;;;;;;;13.89;86.72;96439.38;106706;1277;23150;-83
2023/05/06 10:52:01;;;;;;;9.30;6.80;;;;;;;13.87;86.60;96439.91;106877;1278;24314;-84
2023/05/06 10:55:20;;;;;;;;;;;;;;;;;;;;;
2023/05/06 10:58:53;;;;;;;5.40;6.30;;;;;;;13.79;87.69;96448.92;106800;1279;22601;-84
2023/05/06 11:02:07;;;;;;;;;;;;;;;;;;;;;
2023/05/06 11:05:36;;;;;;;8.60;6.70;;;;;;;13.76;87.77;96444.34;106650;1277;22538;-85
2023/05/06 11:09:07;;;;;;;8.00;6.60;;;;;;;13.77;88.54;96438.33;106487;1277;138621;-84
2023/05/06 11:12:27;;;;;;;7.00;6.00;;;;;;;13.72;88.89;96428.65;106798;1280;22708;-84
2023/05/06 11:15:53;;;;;;;8.40;5.70;;;;;;;13.70;89.51;96425.75;106971;1276;22572;-84
2023/05/06 11:19:26;;;;;;;7.60;6.20;;;;;;;13.59;89.05;96419.63;106742;1277;138067;-84
2023/05/06 11:22:47;;;;;;;8.40;6.20;;;;;;;13.54;89.47;96423.01;106706;1278;24275;-84
2023/05/06 11:26:20;;;;;;;6.50;5.80;;;;;;;13.46;90.41;96419.56;109733;1276;137895;-85
2023/05/06 11:29:46;;;;;;;6.20;5.60;;;;;;;13.41;90.23;96424.35;109783;1278;22222;-84
2023/05/06 11:33:20;;;;;;;6.20;5.40;;;;;;;13.38;91.01;96424.98;109664;1281;138379;-84
2023/05/06 11:36:47;;;;;;;5.00;4.50;;;;;;;13.38;90.63;96426.80;109446;1284;22332;-84
2023/05/06 11:40:14;;;;;;;4.50;3.90;;;;;;;13.40;90.83;96424.23;109748;1284;22149;-84
2023/05/06 11:43:25;;;;;;;;;;;;;;;;;;;;;
2023/05/06 11:46:52;;;;;;;3.30;3.00;;;;;;;13.42;91.29;96431.05;109846;1276;22379;-84
2023/05/06 11:50:22;;;;;;;4.80;4.40;;;;;;;13.45;91.19;96434.70;109720;1283;138165;-84
2023/05/06 11:53:48;;;;;;;5.60;4.90;;;;;;;13.47;91.20;96433.17;109700;1284;22880;-85
2023/05/06 11:57:24;;;;;;;5.10;4.60;;;;;;;13.45;91.83;96435.60;109580;1283;138362;-84
2023/05/06 12:00:51;;;;;;;5.10;4.20;;;;;;;13.44;91.33;96440.52;109760;1277;22354;-84
2023/05/06 12:04:17;;;;;;;6.40;4.60;;;;;;;13.46;91.40;96438.40;107287;1277;24245;-84
2023/05/06 12:07:45;;;;;;;5.70;4.30;;;;;;;13.48;91.52;96436.60;106631;1276;138093;-83
2023/05/06 12:11:11;;;;;;;7.60;4.50;;;;;;;13.48;90.91;96439.73;106804;1276;24212;-84
2023/05/06 12:14:38;;;;;;;5.90;4.50;;;;;;;13.47;91.23;96442.58;106524;1276;137529;-83
2023/05/06 12:18:05;;;;;;;5.10;4.00;;;;;;;13.47;91.15;96446.99;106713;1276;22661;-84
2023/05/06 12:21:27;;;;;;;5.00;4.30;;;;;;;13.47;91.20;96447.03;106647;1276;138248;-84
2023/05/06 12:25:09;;;;;;;4.50;4.10;;;;;;;13.47;91.13;96445.63;109726;1276;22188;-84
2023/05/06 12:28:32;;;;;;;4.70;4.10;;;;;;;13.47;91.40;96448.11;109818;1284;22198;-84
2023/05/06 12:31:51;;;;;;;;;;;;;;;;;;;;;
2023/05/06 12:35:19;;;;;;;4.00;3.60;;;;;;;13.49;91.32;96455.10;107747;1277;22732;-84
2023/05/06 12:38:51;;;;;;;4.90;4.30;;;;;;;13.49;91.43;96459.39;106670;1276;138503;-83
2023/05/06 12:42:16;;;;;;;5.50;5.00;;;;;;;13.52;91.58;96470.19;109753;1283;22198;-84
2023/05/06 12:45:55;;;;;;;6.00;5.40;;;;;;;13.54;92.26;96479.92;109429;1277;138584;-84
2023/05/06 12:49:21;;;;;;;9.00;7.00;;;;;;;13.44;94.24;96483.38;109564;1284;23131;-85
2023/05/06 12:52:50;;;;;;;21.60;17.00;;;;;;;13.38;95.11;96479.70;109652;1276;22217;-85
2023/05/06 12:56:08;;;;;;;;;;;;;;;;;;;;;
2023/05/06 12:59:43;;;;;;;28.60;25.10;;;;;;;13.49;96.23;96473.63;106936;1276;22548;-85
2023/05/06 13:03:10;;;;;;;44.80;38.00;;;;;;;13.60;96.23;96472.05;106756;1276;138603;-86
2023/05/06 13:06:36;;;;;;;37.20;33.60;;;;;;;13.71;96.42;96471.35;106792;1283;22859;-86
2023/05/06 13:10:04;;;;;;;13.60;10.80;;;;;;;13.85;95.82;96471.00;107002;1277;22548;-85
2023/05/06 13:13:29;;;;;;;17.10;15.20;;;;;;;13.91;95.80;96475.83;107083;1276;22562;-84
2023/05/06 13:16:49;;;;;;;23.30;20.90;;;;;;;13.93;96.76;96480.84;109710;1276;22431;-85
2023/05/06 13:20:15;;;;;;;26.40;23.10;;;;;;;13.88;97.12;96482.34;109620;1283;139135;-85
2023/05/06 13:23:40;;;;;;;;;;;;;;;;;;;;;
2023/05/06 13:26:54;;;;;;;;;;;;;;;;;;;;;
2023/05/06 13:30:20;;;;;;;;;;;;;;;;;;;;;
2023/05/06 13:33:40;;;;;;;;;;;;;;;;;;;;;
2023/05/06 13:36:58;;;;;;;31.10;25.40;;;;;;;14.29;98.34;96473.61;109634;1277;22841;-85
2023/05/06 13:40:25;;;;;;;78.60;43.70;;;;;;;14.42;97.21;96470.67;109822;1281;22352;-85
2023/05/06 13:43:44;;;;;;;;;;;;;;;;;;;;;
2023/05/06 13:47:11;;;;;;;14.00;12.30;;;;;;;14.54;96.39;96468.06;109805;1283;22405;-85
2023/05/06 13:50:38;;;;;;;11.60;10.50;;;;;;;14.56;95.57;96465.77;107570;1283;138526;-85
2023/05/06 13:54:05;;;;;;;13.40;12.00;;;;;;;14.53;95.18;96465.09;106827;1276;22533;-85
2023/05/06 13:57:24;;;;;;;15.20;13.70;;;;;;;14.53;95.48;96463.04;108826;1280;138390;-86
2023/05/06 14:00:51;;;;;;;16.20;14.50;;;;;;;14.53;95.38;96458.46;107349;1283;24301;-84
2023/05/06 14:04:15;;;;;;;;;;;;;;;;;;;;;
2023/05/06 14:07:43;;;;;;;45.90;26.60;;;;;;;14.59;96.43;96456.82;109731;1277;22379;-80
2023/05/06 14:11:01;;;;;;;;;;;;;;;;;;;;;
2023/05/06 14:14:33;;;;;;;;;;;;;;;;;;;;;
2023/05/06 14:18:02;;;;;;;16.70;11.60;;;;;;;15.34;96.33;96452.45;106728;1277;25589;-84
2023/05/06 14:21:29;;;;;;;14.70;12.20;;;;;;;15.54;94.88;96453.70;106599;1284;138895;-84
2023/05/06 14:24:56;;;;;;;22.40;20.10;;;;;;;15.69;95.30;96454.96;106700;1276;24216;-84
2023/05/06 14:28:22;;;;;;;32.40;26.30;;;;;;;15.85;95.71;96452.20;106758;1277;22580;-84
2023/05/06 14:31:49;;;;;;;25.80;22.60;;;;;;;16.05;94.23;96460.06;106648;1277;22540;-84
2023/05/06 14:35:15;;;;;;;20.90;18.80;;;;;;;16.12;93.09;96465.71;106695;1280;22689;-85
2023/05/06 14:38:42;;;;;;;23.30;19.40;;;;;;;16.13;93.61;96465.21;106581;1277;138078;-84
2023/05/06 14:42:09;;;;;;;17.30;15.50;;;;;;;16.05;92.36;96459.38;106631;1277;24411;-83
2023/05/06 14:45:35;;;;;;;17.80;15.00;;;;;;;15.97;91.80;96461.55;109115;1283;139183;-84
2023/05/06 14:49:02;;;;;;;18.00;16.30;;;;;;;15.87;91.87;96474.75;106728;1276;22543;-85
2023/05/06 14:52:28;;;;;;;21.50;19.20;;;;;;;15.77;92.28;96477.89;106703;1276;22552;-84
2023/05/06 14:55:55;;;;;;;26.00;22.00;;;;;;;15.65;92.51;96479.05;106701;1276;24315;-85
2023/05/06 14:59:21;;;;;;;23.00;20.70;;;;;;;15.64;92.84;96472.84;106784;1275;23911;-85
2023/05/06 15:02:47;;;;;;;18.40;16.40;;;;;;;15.77;92.96;96478.84;106720;1275;138753;-84
2023/05/06 15:06:14;;;;;;;24.60;22.20;;;;;;;15.83;92.95;96487.00;106691;1283;22630;-84
2023/05/06 15:09:42;;;;;;;21.50;19.30;;;;;;;15.78;91.67;96482.27;106686;1276;139047;-84
2023/05/06 15:13:01;;;;;;;25.10;22.50;;;;;;;15.74;92.61;96479.18;109836;1281;22837;-85
2023/05/06 15:16:28;;;;;;;23.90;21.40;;;;;;;15.79;91.91;96474.70;109736;1283;138478;-85
2023/05/06 15:19:55;;;;;;;27.30;24.50;;;;;;;15.80;90.94;96481.66;106680;1275;22591;-84
2023/05/06 15:23:22;;;;;;;24.80;22.10;;;;;;;15.87;90.68;96487.17;106659;1276;22544;-85
2023/05/06 15:26:48;;;;;;;21.90;19.80;;;;;;;15.85;90.00;96493.19;106692;1276;139122;-84
2023/05/06 15:30:15;;;;;;;21.00;18.80;;;;;;;15.75;88.85;96491.19;106592;1276;22549;-84
2023/05/06 15:33:42;;;;;;;21.90;19.60;;;;;;;15.65;89.07;96485.91;106648;1276;138537;-85
2023/05/06 15:37:18;;;;;;;18.50;16.60;;;;;;;15.74;88.94;96484.10;102622;1276;22560;-85
2023/05/06 15:40:41;;;;;;;21.00;18.90;;;;;;;15.73;87.58;96478.15;106905;1276;24279;-84
2023/05/06 15:44:09;;;;;;;21.40;19.20;;;;;;;15.70;86.94;96480.35;107031;1272;23304;-84
2023/05/06 15:47:27;;;;;;;21.10;18.90;;;;;;;15.65;86.63;96480.03;106994;1276;25249;-85
2023/05/06 15:50:48;;;;;;;20.70;18.60;;;;;;;15.59;85.66;96480.46;106754;1276;138407;-85
2023/05/06 15:54:17;;;;;;;20.80;18.70;;;;;;;15.55;85.95;96482.17;106936;1276;22562;-85
2023/05/06 15:57:42;;;;;;;20.20;17.40;;;;;;;15.55;85.90;96484.88;109665;1276;139289;-85
2023/05/06 16:01:07;;;;;;;21.90;19.50;;;;;;;15.64;86.78;96486.23;109638;1280;22185;-85
2023/05/06 16:04:32;;;;;;;;;;;;;;;;;;;;;
2023/05/06 16:07:58;;;;;;;;;;;;;;;;;;;;;
2023/05/06 16:11:27;;;;;;;20.20;18.10;;;;;;;15.74;84.80;96494.25;107223;1277;23021;-85
2023/05/06 16:14:53;;;;;;;21.90;19.60;;;;;;;15.80;85.05;96497.42;106940;1276;138801;-85
2023/05/06 16:18:21;;;;;;;21.10;19.00;;;;;;;15.82;83.93;96489.95;106874;1275;24249;-85
2023/05/06 16:21:48;;;;;;;19.90;17.90;;;;;;;15.74;83.87;96488.41;106855;1276;137835;-85
2023/05/06 16:25:15;;;;;;;22.60;19.50;;;;;;;15.62;83.75;96484.67;106938;1276;22549;-84
2023/05/06 16:28:42;;;;;;;21.80;18.30;;;;;;;15.56;83.80;96486.47;109583;1276;139083;-86
2023/05/06 16:32:09;;;;;;;20.20;18.10;;;;;;;15.54;83.38;96489.75;106827;1276;23441;-85
2023/05/06 16:35:35;;;;;;;18.40;16.50;;;;;;;15.58;84.10;96485.95;106798;1278;25313;-85
2023/05/06 16:39:01;;;;;;;20.60;18.50;;;;;;;15.65;84.32;96492.36;106680;1276;138108;-85
2023/05/06 16:42:28;;;;;;;19.00;15.10;;;;;;;15.67;83.39;96493.72;106752;1277;25018;-85
2023/05/06 16:45:54;;;;;;;15.70;14.10;;;;;;;15.64;83.25;96497.80;106944;1275;138450;-85
2023/05/06 16:49:21;;;;;;;17.20;14.30;;;;;;;15.51;81.95;96499.05;106772;1276;23319;-86
2023/05/06 16:52:47;;;;;;;14.90;13.40;;;;;;;15.41;82.28;96500.77;106661;1277;137319;-85
2023/05/06 16:56:14;;;;;;;14.90;13.50;;;;;;;15.40;83.08;96510.45;106732;1276;22568;-84
2023/05/06 16:59:41;;;;;;;14.80;13.20;;;;;;;15.41;83.24;96516.89;106827;1276;22630;-85
2023/05/06 17:03:07;;;;;;;13.70;12.30;;;;;;;15.38;82.32;96520.29;106757;1276;139675;-86
2023/05/06 17:06:34;;;;;;;15.60;13.90;;;;;;;15.28;82.00;96516.39;106693;1276;22557;-86